sensor_id;sensor_type;location;lat;lon;timestamp;P1;durP1;ratioP1;P2;durP2;ratioP2
24301;SDS011;12421;49.732;20.078;2023-04-07T00:04:15;20.80;;;17.00;;
24301;SDS011;12421;49.732;20.078;2023-04-07T00:14:18;28.00;;;21.00;;
24301;SDS011;12421;49.732;20.078;2023-04-07T00:24:21;38.00;;;26.60;;
24301;SDS011;12421;49.732;20.078;2023-04-07T00:34:36;26.10;;;20.50;;
24301;SDS011;12421;49.732;20.078;2023-04-07T00:44:39;24.20;;;17.90;;
24301;SDS011;12421;49.732;20.078;2023-04-07T00:54:43;22.40;;;16.90;;
24301;SDS011;12421;49.732;20.078;2023-04-07T01:16:26;26.20;;;18.40;;
24301;SDS011;12421;49.732;20.078;2023-04-07T01:26:57;26.60;;;18.60;;
24301;SDS011;12421;49.732;20.078;2023-04-07T01:37:22;25.10;;;18.40;;
24301;SDS011;12421;49.732;20.078;2023-04-07T01:47:32;25.90;;;19.10;;
24301;SDS011;12421;49.732;20.078;2023-04-07T01:58:21;28.10;;;18.90;;
24301;SDS011;12421;49.732;20.078;2023-04-07T02:20:59;32.10;;;21.40;;
24301;SDS011;12421;49.732;20.078;2023-04-07T02:31:28;34.20;;;22.60;;
24301;SDS011;12421;49.732;20.078;2023-04-07T02:41:36;29.90;;;19.10;;
24301;SDS011;12421;49.732;20.078;2023-04-07T02:51:57;21.80;;;15.40;;
24301;SDS011;12421;49.732;20.078;2023-04-07T03:02:07;22.90;;;16.40;;
24301;SDS011;12421;49.732;20.078;2023-04-07T03:12:18;31.50;;;21.80;;
24301;SDS011;12421;49.732;20.078;2023-04-07T03:22:31;35.90;;;24.20;;
24301;SDS011;12421;49.732;20.078;2023-04-07T03:32:46;29.50;;;21.30;;
24301;SDS011;12421;49.732;20.078;2023-04-07T03:54:52;24.50;;;18.40;;
24301;SDS011;12421;49.732;20.078;2023-04-07T04:05:21;27.70;;;20.20;;
24301;SDS011;12421;49.732;20.078;2023-04-07T04:15:26;26.20;;;20.00;;
24301;SDS011;12421;49.732;20.078;2023-04-07T04:25:34;26.50;;;18.40;;
24301;SDS011;12421;49.732;20.078;2023-04-07T04:35:43;27.80;;;20.40;;
24301;SDS011;12421;49.732;20.078;2023-04-07T04:56:45;27.70;;;20.80;;
24301;SDS011;12421;49.732;20.078;2023-04-07T05:07:04;23.70;;;18.20;;
24301;SDS011;12421;49.732;20.078;2023-04-07T05:28:18;24.40;;;17.20;;
24301;SDS011;12421;49.732;20.078;2023-04-07T05:38:47;27.30;;;18.50;;
24301;SDS011;12421;49.732;20.078;2023-04-07T05:49:14;27.10;;;18.20;;
24301;SDS011;12421;49.732;20.078;2023-04-07T05:59:24;29.00;;;20.70;;
24301;SDS011;12421;49.732;20.078;2023-04-07T06:09:34;19.80;;;13.10;;
24301;SDS011;12421;49.732;20.078;2023-04-07T06:19:59;17.00;;;12.40;;
24301;SDS011;12421;49.732;20.078;2023-04-07T06:30:10;20.50;;;14.10;;
24301;SDS011;12421;49.732;20.078;2023-04-07T06:40:14;27.10;;;19.40;;
24301;SDS011;12421;49.732;20.078;2023-04-07T06:50:50;21.40;;;14.90;;
24301;SDS011;12421;49.732;20.078;2023-04-07T07:01:09;20.80;;;15.10;;
24301;SDS011;12421;49.732;20.078;2023-04-07T07:11:15;20.00;;;13.70;;
24301;SDS011;12421;49.732;20.078;2023-04-07T07:21:48;20.70;;;14.70;;
24301;SDS011;12421;49.732;20.078;2023-04-07T07:42:15;21.30;;;15.20;;
24301;SDS011;12421;49.732;20.078;2023-04-07T08:03:29;21.40;;;13.70;;
24301;SDS011;12421;49.732;20.078;2023-04-07T08:13:36;18.00;;;14.00;;
24301;SDS011;12421;49.732;20.078;2023-04-07T08:36:09;14.80;;;11.20;;
24301;SDS011;12421;49.732;20.078;2023-04-07T10:06:53;15.80;;;11.90;;
24301;SDS011;12421;49.732;20.078;2023-04-07T10:17:24;15.20;;;11.40;;
24301;SDS011;12421;49.732;20.078;2023-04-07T10:49:42;20.40;;;15.40;;
24301;SDS011;12421;49.732;20.078;2023-04-07T11:12:19;22.50;;;14.30;;
24301;SDS011;12421;49.732;20.078;2023-04-07T11:23:21;16.10;;;11.60;;
24301;SDS011;12421;49.732;20.078;2023-04-07T11:33:49;17.90;;;12.70;;
24301;SDS011;12421;49.732;20.078;2023-04-07T11:45:07;14.30;;;10.90;;
24301;SDS011;12421;49.732;20.078;2023-04-07T11:55:43;14.80;;;11.20;;
24301;SDS011;12421;49.732;20.078;2023-04-07T12:05:51;14.60;;;10.60;;
24301;SDS011;12421;49.732;20.078;2023-04-07T12:28:17;12.90;;;9.60;;
24301;SDS011;12421;49.732;20.078;2023-04-07T12:38:41;17.00;;;10.70;;
24301;SDS011;12421;49.732;20.078;2023-04-07T12:49:02;13.50;;;9.50;;
24301;SDS011;12421;49.732;20.078;2023-04-07T12:59:38;15.40;;;10.50;;
24301;SDS011;12421;49.732;20.078;2023-04-07T13:10:44;26.20;;;17.20;;
24301;SDS011;12421;49.732;20.078;2023-04-07T13:20:56;20.60;;;12.30;;
24301;SDS011;12421;49.732;20.078;2023-04-07T13:32:12;23.80;;;16.10;;
24301;SDS011;12421;49.732;20.078;2023-04-07T13:42:59;18.90;;;12.50;;
24301;SDS011;12421;49.732;20.078;2023-04-07T13:53:54;34.90;;;15.40;;
24301;SDS011;12421;49.732;20.078;2023-04-07T14:04:35;9.00;;;6.00;;
24301;SDS011;12421;49.732;20.078;2023-04-07T14:15:42;12.90;;;8.70;;
24301;SDS011;12421;49.732;20.078;2023-04-07T14:26:29;22.00;;;12.00;;
24301;SDS011;12421;49.732;20.078;2023-04-07T14:47:55;19.00;;;11.10;;
24301;SDS011;12421;49.732;20.078;2023-04-07T15:09:29;17.60;;;12.30;;
24301;SDS011;12421;49.732;20.078;2023-04-07T15:20:25;23.30;;;14.00;;
24301;SDS011;12421;49.732;20.078;2023-04-07T15:54:08;36.10;;;23.90;;
24301;SDS011;12421;49.732;20.078;2023-04-07T16:27:52;45.60;;;30.10;;
24301;SDS011;12421;49.732;20.078;2023-04-07T16:38:56;38.80;;;28.60;;
24301;SDS011;12421;49.732;20.078;2023-04-07T18:09:05;93.00;;;58.10;;
24301;SDS011;12421;49.732;20.078;2023-04-07T18:53:50;129.80;;;77.70;;
24301;SDS011;12421;49.732;20.078;2023-04-07T19:27:35;90.30;;;55.30;;
24301;SDS011;12421;49.732;20.078;2023-04-07T20:56:46;24.70;;;16.20;;
24301;SDS011;12421;49.732;20.078;2023-04-07T21:07:21;28.10;;;17.80;;
24301;SDS011;12421;49.732;20.078;2023-04-07T21:29:55;25.50;;;18.00;;
24301;SDS011;12421;49.732;20.078;2023-04-07T21:51:50;31.80;;;22.20;;
24301;SDS011;12421;49.732;20.078;2023-04-07T22:25:32;33.20;;;21.70;;
24301;SDS011;12421;49.732;20.078;2023-04-07T23:21:18;30.90;;;22.00;;
24301;SDS011;12421;49.732;20.078;2023-04-07T23:31:49;26.10;;;18.90;;
24301;SDS011;12421;49.732;20.078;2023-04-07T23:42:52;29.10;;;20.60;;
